Time;durP1;ratioP1;P1;durP2;ratioP2;P2;SDS_P1;SDS_P2;PMS_P1;PMS_P2;Temp;Humidity;BMP_temperature;BMP_pressure;BME280_temperature;BME280_humidity;BME280_pressure;Samples;Min_cycle;Max_cycle;Signal;HPM_P1;HPM_P2
2022/09/07 00:01:55;;;;;;;5.35;3.58;;;18.20;99.90;;;;;;5015632;28;20229;-88
2022/09/07 00:04:21;;;;;;;3.80;3.35;;;18.20;99.90;;;;;;5015845;28;20186;-88
2022/09/07 00:06:47;;;;;;;4.80;3.30;;;18.10;99.90;;;;;;5015817;28;20213;-87
2022/09/07 00:09:13;;;;;;;4.70;3.58;;;18.10;99.90;;;;;;5015791;28;20182;-88
2022/09/07 00:11:39;;;;;;;5.32;3.53;;;18.00;99.90;;;;;;5015723;28;20229;-88
2022/09/07 00:14:06;;;;;;;5.10;3.10;;;18.00;99.90;;;;;;5002730;28;20207;-87
2022/09/07 00:16:32;;;;;;;5.53;3.08;;;17.90;99.90;;;;;;4996182;28;20198;-88
2022/09/07 00:19:00;;;;;;;7.38;3.55;;;17.80;99.90;;;;;;5013541;28;20285;-88
2022/09/07 00:21:27;;;;;;;5.10;3.13;;;17.80;99.90;;;;;;5015742;28;20257;-88
2022/09/07 00:23:53;;;;;;;6.57;3.17;;;17.90;99.90;;;;;;5015635;28;20179;-88
2022/09/07 00:26:22;;;;;;;4.18;3.25;;;17.90;99.90;;;;;;5015616;28;20190;-88
2022/09/07 00:28:49;;;;;;;10.82;3.20;;;18.00;99.90;;;;;;5015388;28;20182;-88
2022/09/07 00:31:18;;;;;;;6.40;3.22;;;18.00;99.90;;;;;;5015605;28;20224;-88
2022/09/07 00:33:46;;;;;;;4.78;3.03;;;18.00;99.90;;;;;;5015501;28;20210;-88
2022/09/07 00:36:12;;;;;;;5.63;3.13;;;18.10;99.90;;;;;;5017307;28;20217;-88
2022/09/07 00:38:38;;;;;;;5.07;3.17;;;18.10;99.90;;;;;;5016338;28;20183;-88
2022/09/07 00:41:05;;;;;;;4.25;3.00;;;18.20;99.90;;;;;;5015661;28;20201;-88
2022/09/07 00:43:46;;;;;;;5.72;2.80;;;18.10;99.90;;;;;;5015740;28;20296;-88
2022/09/07 00:46:18;;;;;;;6.43;2.90;;;18.10;99.90;;;;;;5016371;28;20183;-88
2022/09/07 00:48:58;;;;;;;6.65;2.90;;;18.10;99.90;;;;;;5000452;28;20202;-87
2022/09/07 00:51:27;;;;;;;5.10;2.75;;;18.00;99.90;;;;;;4996393;28;20242;-88
2022/09/07 00:54:01;;;;;;;7.03;3.20;;;18.00;99.90;;;;;;4995749;28;20306;-88
2022/09/07 00:56:33;;;;;;;3.55;2.70;;;18.00;99.90;;;;;;4995456;28;20206;-88
2022/09/07 00:59:00;;;;;;;3.20;2.60;;;18.10;99.90;;;;;;4994326;28;20239;-88
2022/09/07 01:01:27;;;;;;;3.25;2.67;;;18.10;99.90;;;;;;4995373;28;20241;-88
2022/09/07 01:03:55;;;;;;;5.57;3.45;;;18.10;99.90;;;;;;4995170;28;20318;-88
2022/09/07 01:06:34;;;;;;;4.63;2.78;;;18.20;99.90;;;;;;4994978;28;20234;-88
2022/09/07 01:09:04;;;;;;;3.65;2.88;;;18.20;99.90;;;;;;4994473;28;20302;-88
2022/09/07 01:11:33;;;;;;;5.65;3.22;;;18.20;99.90;;;;;;4995224;28;20302;-88
2022/09/07 01:13:59;;;;;;;4.25;2.90;;;18.20;99.90;;;;;;4994405;28;20733;-88
2022/09/07 01:16:32;;;;;;;3.67;2.90;;;18.20;99.90;;;;;;4994813;28;20183;-88
2022/09/07 01:19:25;;;;;;;5.13;3.03;;;18.20;99.90;;;;;;4994658;28;20195;-88
2022/09/07 01:22:33;;;;;;;3.72;2.85;;;18.20;99.90;;;;;;4994912;28;20673;-88
2022/09/07 01:25:09;;;;;;;4.85;3.00;;;18.10;99.90;;;;;;4994624;28;20194;-87
2022/09/07 01:27:47;;;;;;;3.50;3.05;;;18.10;99.90;;;;;;4994309;28;20206;-87
2022/09/07 01:30:19;;;;;;;4.07;3.28;;;18.20;99.90;;;;;;4994603;28;20179;-88
2022/09/07 01:33:09;;;;;;;5.38;3.03;;;18.10;99.90;;;;;;4994592;28;20214;-88
2022/09/07 01:36:14;;;;;;;3.75;2.90;;;18.10;99.90;;;;;;4994339;28;20198;-88
2022/09/07 01:38:45;;;;;;;3.50;3.17;;;18.10;99.90;;;;;;4994351;28;20186;-88
2022/09/07 01:41:27;;;;;;;5.47;2.88;;;18.10;99.90;;;;;;4994514;28;20205;-88
2022/09/07 01:44:16;;;;;;;3.60;2.67;;;18.00;99.90;;;;;;4994547;28;20191;-88
2022/09/07 01:47:06;;;;;;;4.63;3.35;;;18.00;99.90;;;;;;4994263;28;20237;-88
2022/09/07 01:49:44;;;;;;;4.15;2.90;;;17.90;99.90;;;;;;4994550;28;20300;-88
2022/09/07 01:52:41;;;;;;;4.22;2.85;;;17.80;99.90;;;;;;4994170;28;20245;-88
2022/09/07 01:55:19;;;;;;;5.43;2.80;;;17.70;99.90;;;;;;4994157;28;20199;-88
2022/09/07 01:57:55;;;;;;;5.45;3.03;;;17.70;99.90;;;;;;4993880;28;20194;-88
2022/09/07 02:00:21;;;;;;;4.75;3.13;;;17.60;99.90;;;;;;4993820;28;20282;-88
2022/09/07 02:03:03;;;;;;;6.15;3.10;;;17.60;99.90;;;;;;4994354;28;20210;-88
2022/09/07 02:05:47;;;;;;;6.35;3.25;;;17.60;99.90;;;;;;4995569;28;20633;-88
2022/09/07 02:08:36;;;;;;;5.38;3.10;;;17.60;99.90;;;;;;4994119;28;20274;-88
2022/09/07 02:11:10;;;;;;;6.18;2.83;;;17.60;99.90;;;;;;4993134;28;20633;-87
2022/09/07 02:13:44;;;;;;;9.75;3.60;;;17.70;99.90;;;;;;4993468;28;20241;-88
2022/09/07 02:16:19;;;;;;;4.75;2.60;;;17.70;99.90;;;;;;4994048;28;20184;-88
2022/09/07 02:18:48;;;;;;;4.05;2.97;;;17.80;99.90;;;;;;4993400;28;20183;-88
2022/09/07 02:21:20;;;;;;;4.47;3.00;;;17.80;99.90;;;;;;4993164;28;20206;-88
2022/09/07 02:23:50;;;;;;;5.25;2.90;;;17.80;99.90;;;;;;4990037;28;20195;-88
2022/09/07 02:26:20;;;;;;;3.30;2.88;;;17.80;99.90;;;;;;4974275;28;20180;-88
2022/09/07 02:28:46;;;;;;;5.03;2.85;;;17.80;99.90;;;;;;4973966;28;20192;-88
2022/09/07 02:31:13;;;;;;;4.82;2.72;;;17.80;99.90;;;;;;4974118;28;20207;-88
2022/09/07 02:33:40;;;;;;;5.05;3.20;;;17.80;99.90;;;;;;4975358;28;20207;-88
2022/09/07 02:36:06;;;;;;;6.40;3.20;;;17.80;99.90;;;;;;4975046;28;20199;-88
2022/09/07 02:38:33;;;;;;;3.70;3.17;;;17.80;99.90;;;;;;4974079;28;20679;-88
2022/09/07 02:41:01;;;;;;;4.25;2.95;;;17.80;99.90;;;;;;4974142;28;20283;-88
2022/09/07 02:43:28;;;;;;;4.07;2.63;;;17.70;99.90;;;;;;4974010;28;20188;-88
2022/09/07 02:46:00;;;;;;;4.63;2.97;;;17.70;99.90;;;;;;4974123;28;20192;-88
2022/09/07 02:48:48;;;;;;;3.92;2.70;;;17.70;99.90;;;;;;4986796;28;20198;-88
2022/09/07 02:51:21;;;;;;;6.03;3.30;;;17.70;99.90;;;;;;4993277;28;20203;-88
2022/09/07 02:53:51;;;;;;;4.93;2.88;;;17.70;99.90;;;;;;4993269;28;20219;-88
2022/09/07 02:56:38;;;;;;;4.85;3.28;;;17.70;99.90;;;;;;4993254;28;20187;-88
2022/09/07 02:59:16;;;;;;;4.28;2.78;;;17.60;99.90;;;;;;4993505;28;20270;-87
2022/09/07 03:02:01;;;;;;;4.90;3.25;;;17.60;99.90;;;;;;4993576;28;20195;-87
2022/09/07 03:04:36;;;;;;;4.32;3.08;;;17.60;99.90;;;;;;4993391;28;20294;-87
2022/09/07 03:07:14;;;;;;;4.20;2.40;;;17.70;99.90;;;;;;4992798;28;20180;-87
2022/09/07 03:09:47;;;;;;;3.25;2.90;;;17.80;99.90;;;;;;4992809;28;20179;-88
2022/09/07 03:12:13;;;;;;;3.47;2.75;;;17.80;99.90;;;;;;4993485;28;20266;-88
2022/09/07 03:14:41;;;;;;;4.82;2.58;;;17.90;99.90;;;;;;4991821;28;20183;-88
2022/09/07 03:17:09;;;;;;;5.53;2.75;;;17.90;99.90;;;;;;5000168;28;20183;-87
2022/09/07 03:19:35;;;;;;;4.55;2.80;;;17.90;99.90;;;;;;4995875;28;20172;-87
2022/09/07 03:22:02;;;;;;;5.82;3.00;;;17.80;99.90;;;;;;4994223;28;20203;-87
2022/09/07 03:24:28;;;;;;;4.57;3.00;;;17.80;99.90;;;;;;4996194;28;20218;-88
2022/09/07 03:26:56;;;;;;;6.65;3.20;;;17.80;99.90;;;;;;4994949;28;20191;-88
2022/09/07 03:29:22;;;;;;;7.70;3.00;;;17.80;99.90;;;;;;4995833;28;20276;-88
2022/09/07 03:31:48;;;;;;;7.28;3.35;;;17.80;99.90;;;;;;4995909;28;20279;-88
2022/09/07 03:34:15;;;;;;;5.22;2.65;;;17.80;99.90;;;;;;4994967;28;20207;-87
2022/09/07 03:36:42;;;;;;;4.85;2.50;;;17.80;99.90;;;;;;5003819;28;20274;-88
2022/09/07 03:39:10;;;;;;;3.97;2.90;;;17.80;99.90;;;;;;4996327;28;20274;-88
2022/09/07 03:41:39;;;;;;;4.68;3.13;;;17.80;99.90;;;;;;5000317;28;20208;-88
2022/09/07 03:44:06;;;;;;;4.00;2.75;;;17.80;99.90;;;;;;4994730;28;20222;-88
2022/09/07 03:46:33;;;;;;;3.60;2.80;;;17.70;99.90;;;;;;5003444;28;20179;-87
2022/09/07 03:48:59;;;;;;;4.35;2.45;;;17.70;99.90;;;;;;4995535;28;20189;-88
2022/09/07 03:51:25;;;;;;;3.78;2.78;;;17.80;99.90;;;;;;5003611;28;20206;-88
2022/09/07 03:53:51;;;;;;;4.55;2.63;;;17.80;99.90;;;;;;4995006;28;20199;-88
2022/09/07 03:56:22;;;;;;;5.18;2.75;;;17.80;99.90;;;;;;4995701;28;20191;-88
2022/09/07 03:58:48;;;;;;;4.15;2.75;;;17.80;99.90;;;;;;4994649;28;20229;-88
2022/09/07 04:01:20;;;;;;;3.65;2.80;;;17.70;99.90;;;;;;5001078;28;20207;-88
2022/09/07 04:03:47;;;;;;;4.38;2.95;;;17.70;99.90;;;;;;4995589;28;20175;-87
2022/09/07 04:06:13;;;;;;;5.20;2.92;;;17.70;99.90;;;;;;4995192;28;20230;-87
2022/09/07 04:08:43;;;;;;;4.30;3.15;;;17.60;99.90;;;;;;5004922;28;20183;-87
2022/09/07 04:11:13;;;;;;;3.65;3.10;;;17.60;99.90;;;;;;5002367;28;20284;-88
2022/09/07 04:13:40;;;;;;;3.92;3.10;;;17.60;99.90;;;;;;4995475;28;20732;-87
2022/09/07 04:16:21;;;;;;;5.68;3.05;;;17.60;99.90;;;;;;4994465;28;20187;-88
2022/09/07 04:18:49;;;;;;;5.65;2.85;;;17.60;99.90;;;;;;4994447;28;20186;-87
2022/09/07 04:21:16;;;;;;;3.27;2.80;;;17.60;99.90;;;;;;5003201;28;20240;-87
2022/09/07 04:23:43;;;;;;;4.43;3.33;;;17.50;99.90;;;;;;5002365;28;20181;-87
2022/09/07 04:26:14;;;;;;;3.80;3.08;;;17.50;99.90;;;;;;4993793;28;20242;-87
2022/09/07 04:28:40;;;;;;;5.30;3.03;;;17.40;99.90;;;;;;5004077;28;20178;-87
2022/09/07 04:31:06;;;;;;;8.57;3.30;;;17.40;99.90;;;;;;4993676;28;20239;-87
2022/09/07 04:33:33;;;;;;;4.75;3.20;;;17.30;99.90;;;;;;4995429;28;20199;-87
2022/09/07 04:36:02;;;;;;;4.73;3.23;;;17.30;99.90;;;;;;5003333;28;20203;-87
2022/09/07 04:38:28;;;;;;;3.43;2.87;;;17.20;99.90;;;;;;4993180;28;20721;-87
2022/09/07 04:41:05;;;;;;;3.15;2.40;;;17.20;99.90;;;;;;4993369;28;20231;-87
2022/09/07 04:43:31;;;;;;;3.27;2.90;;;17.30;99.90;;;;;;5002614;28;20277;-87
2022/09/07 04:46:00;;;;;;;4.67;3.10;;;17.30;99.90;;;;;;4994016;28;20229;-87
2022/09/07 04:48:26;;;;;;;4.70;3.40;;;17.20;99.90;;;;;;4994590;28;20183;-87
2022/09/07 04:50:52;;;;;;;6.53;3.10;;;17.20;99.90;;;;;;4994255;28;20287;-87
2022/09/07 04:53:18;;;;;;;5.80;3.50;;;17.30;99.90;;;;;;4992049;28;20199;-87
2022/09/07 04:55:44;;;;;;;4.20;3.20;;;17.30;99.90;;;;;;4993386;28;20175;-87
2022/09/07 04:58:10;;;;;;;5.83;3.53;;;17.20;99.90;;;;;;4993751;28;20188;-87
2022/09/07 05:00:38;;;;;;;6.10;3.77;;;17.20;99.90;;;;;;4993001;28;20175;-87
2022/09/07 05:03:05;;;;;;;4.93;3.47;;;17.20;99.90;;;;;;5009399;28;20179;-87
2022/09/07 05:05:30;;;;;;;3.73;2.80;;;17.10;99.90;;;;;;4993562;28;20268;-87
2022/09/07 05:07:56;;;;;;;4.97;3.10;;;17.00;99.90;;;;;;5000854;28;20653;-87
2022/09/07 05:10:22;;;;;;;5.87;3.63;;;17.00;99.90;;;;;;5007216;28;20193;-87
2022/09/07 05:12:48;;;;;;;5.27;3.50;;;17.00;99.90;;;;;;5002075;28;20218;-87
2022/09/07 05:15:14;;;;;;;3.50;3.00;;;16.90;99.90;;;;;;4996555;28;20179;-87
2022/09/07 05:17:40;;;;;;;6.23;3.40;;;16.90;99.90;;;;;;4995368;28;20183;-87
2022/09/07 05:20:06;;;;;;;4.77;3.23;;;16.90;99.90;;;;;;4995998;28;20186;-87
2022/09/07 05:22:34;;;;;;;4.70;3.33;;;16.90;99.90;;;;;;4995983;28;20200;-87
2022/09/07 05:25:00;;;;;;;4.87;3.30;;;17.00;99.90;;;;;;4996150;28;20181;-87
2022/09/07 05:27:26;;;;;;;7.13;3.30;;;17.00;99.90;;;;;;4995901;28;20269;-87
2022/09/07 05:29:53;;;;;;;5.73;3.13;;;17.10;99.90;;;;;;4996396;28;20183;-87
2022/09/07 05:32:19;;;;;;;4.67;3.00;;;17.20;99.90;;;;;;4992282;28;20215;-87
2022/09/07 05:34:45;;;;;;;7.43;2.70;;;17.20;99.90;;;;;;4993645;28;20213;-88
2022/09/07 05:37:11;;;;;;;8.10;3.30;;;17.30;99.90;;;;;;4993565;28;20250;-88
2022/09/07 05:39:38;;;;;;;5.70;3.40;;;17.30;99.90;;;;;;4994069;28;20207;-87
2022/09/07 05:42:04;;;;;;;6.90;2.97;;;17.40;99.90;;;;;;4994040;28;20722;-87
2022/09/07 05:44:30;;;;;;;4.10;3.10;;;17.40;99.90;;;;;;4989952;28;20198;-87
2022/09/07 05:46:56;;;;;;;5.17;3.17;;;17.40;99.90;;;;;;4990591;28;20257;-88
2022/09/07 05:49:22;;;;;;;8.35;3.42;;;17.40;99.90;;;;;;4993435;28;20183;-87
2022/09/07 05:51:48;;;;;;;4.73;3.20;;;17.50;99.90;;;;;;4988669;28;20194;-87
2022/09/07 05:54:14;;;;;;;5.47;3.27;;;17.50;99.90;;;;;;4974919;28;20211;-87
2022/09/07 05:56:40;;;;;;;6.57;3.80;;;17.40;99.90;;;;;;4990237;28;20187;-87
2022/09/07 05:59:06;;;;;;;4.53;3.40;;;17.30;99.90;;;;;;5010559;28;20183;-87
2022/09/07 06:01:34;;;;;;;4.27;3.17;;;17.30;99.90;;;;;;4988806;28;20211;-87
2022/09/07 06:04:00;;;;;;;4.17;2.83;;;17.30;99.90;;;;;;4991417;28;20182;-87
2022/09/07 06:06:26;;;;;;;4.70;3.60;;;17.40;99.90;;;;;;4989885;28;20258;-87
2022/09/07 06:08:53;;;;;;;4.78;3.33;;;17.40;99.90;;;;;;4990681;28;20187;-87
2022/09/07 06:11:21;;;;;;;3.93;3.10;;;17.40;99.90;;;;;;4986865;28;20203;-88
2022/09/07 06:13:48;;;;;;;4.47;3.47;;;17.50;99.90;;;;;;4995254;28;20230;-88
2022/09/07 06:16:17;;;;;;;6.30;3.30;;;17.50;99.90;;;;;;4992184;28;20186;-87
2022/09/07 06:18:45;;;;;;;5.50;3.33;;;17.60;99.90;;;;;;4993843;28;20179;-87
2022/09/07 06:21:14;;;;;;;5.57;3.27;;;17.70;99.90;;;;;;5002307;28;20196;-88
2022/09/07 06:23:45;;;;;;;5.63;3.80;;;17.80;99.90;;;;;;5005686;28;20253;-88
2022/09/07 06:26:12;;;;;;;4.75;3.42;;;17.90;99.90;;;;;;5005701;28;20275;-88
2022/09/07 06:28:41;;;;;;;5.97;3.58;;;18.00;99.90;;;;;;4991867;28;20174;-88
2022/09/07 06:31:12;;;;;;;6.75;2.92;;;18.20;99.90;;;;;;4986924;28;20202;-87
2022/09/07 06:33:39;;;;;;;4.43;2.95;;;18.30;99.90;;;;;;4988123;28;20264;-87
2022/09/07 06:36:10;;;;;;;6.57;2.92;;;18.40;99.90;;;;;;4984271;28;20274;-87
2022/09/07 06:38:38;;;;;;;8.75;3.22;;;18.40;99.90;;;;;;4983151;28;20234;-88
2022/09/07 06:41:15;;;;;;;4.95;3.20;;;18.50;99.90;;;;;;4983381;28;20199;-88
2022/09/07 06:43:42;;;;;;;7.35;3.78;;;18.50;99.90;;;;;;4986149;28;20179;-87
2022/09/07 06:46:10;;;;;;;6.50;3.25;;;18.50;99.90;;;;;;5002013;28;20172;-87
2022/09/07 06:48:36;;;;;;;5.03;3.10;;;18.70;99.90;;;;;;4997327;28;20189;-88
2022/09/07 06:51:06;;;;;;;6.43;3.20;;;18.70;99.90;;;;;;4982933;28;20203;-88
2022/09/07 06:53:34;;;;;;;5.75;3.40;;;18.80;99.90;;;;;;4985076;28;20203;-87
2022/09/07 06:56:03;;;;;;;8.20;3.08;;;19.00;99.90;;;;;;4983440;28;20641;-89
2022/09/07 06:58:29;;;;;;;5.35;2.97;;;19.10;99.90;;;;;;5006570;28;20190;-88
2022/09/07 07:00:55;;;;;;;6.72;3.15;;;19.30;99.90;;;;;;5001177;28;20179;-88
2022/09/07 07:03:21;;;;;;;6.53;3.40;;;19.40;99.90;;;;;;4987824;28;20180;-88
2022/09/07 07:05:54;;;;;;;4.25;2.70;;;19.50;99.90;;;;;;4985221;28;20175;-88
2022/09/07 07:08:23;;;;;;;5.65;3.00;;;19.70;99.90;;;;;;4985298;28;20175;-88
2022/09/07 07:10:49;;;;;;;5.90;3.13;;;19.80;99.90;;;;;;5002425;28;20179;-87
2022/09/07 07:13:16;;;;;;;7.47;3.15;;;19.90;99.90;;;;;;4987242;28;20204;-88
2022/09/07 07:15:43;;;;;;;5.63;2.72;;;20.00;99.90;;;;;;4998787;28;20175;-88
2022/09/07 07:18:10;;;;;;;6.43;3.10;;;20.10;99.90;;;;;;4989703;28;20187;-88
2022/09/07 07:20:41;;;;;;;8.05;3.10;;;20.20;99.90;;;;;;4987583;28;20200;-88
2022/09/07 07:23:09;;;;;;;4.72;3.00;;;20.20;99.90;;;;;;5002366;28;20218;-88
2022/09/07 07:25:36;;;;;;;5.35;3.28;;;20.30;99.90;;;;;;5000553;28;20172;-87
2022/09/07 07:28:03;;;;;;;7.88;3.28;;;20.40;99.90;;;;;;5014858;28;20179;-88
2022/09/07 07:30:29;;;;;;;4.30;2.60;;;20.50;99.90;;;;;;4999568;28;20175;-90
2022/09/07 07:32:56;;;;;;;6.82;3.25;;;20.60;99.90;;;;;;5000790;28;20217;-86
2022/09/07 07:35:22;;;;;;;7.97;2.90;;;20.80;99.90;;;;;;5010678;28;20207;-88
2022/09/07 07:41:59;;;;;;;4.22;2.70;;;21.10;99.90;;;;;;4957756;28;20208;-88
2022/09/07 07:44:26;;;;;;;6.57;3.00;;;21.30;99.90;;;;;;5000156;28;20207;-88
2022/09/07 07:46:52;;;;;;;7.70;2.90;;;21.50;99.90;;;;;;5004095;28;20245;-88
2022/09/07 07:49:18;;;;;;;6.10;2.70;;;21.70;99.90;;;;;;5008064;28;20203;-88
2022/09/07 07:51:44;;;;;;;7.25;2.92;;;21.80;99.90;;;;;;5006883;28;20195;-87
2022/09/07 07:54:10;;;;;;;3.88;2.63;;;22.00;99.90;;;;;;4998464;28;20210;-88
2022/09/07 07:56:36;;;;;;;5.40;2.78;;;22.10;99.90;;;;;;4986094;28;20179;-88
2022/09/07 07:59:01;;;;;;;6.07;2.92;;;22.30;99.90;;;;;;4995065;28;20195;-88
2022/09/07 08:01:29;;;;;;;7.57;2.75;;;22.50;99.90;;;;;;4998850;28;20208;-87
2022/09/07 08:03:55;;;;;;;3.42;2.38;;;22.60;99.90;;;;;;5001465;28;20180;-88
2022/09/07 08:06:21;;;;;;;6.53;2.53;;;22.80;99.90;;;;;;5000239;28;20180;-87
2022/09/07 08:08:47;;;;;;;6.93;2.45;;;22.90;99.90;;;;;;4988551;28;21019;-88
2022/09/07 08:11:17;;;;;;;4.38;2.50;;;23.00;99.90;;;;;;5010531;28;20244;-88
2022/09/07 08:13:51;;;;;;;5.25;2.42;;;23.10;99.90;;;;;;4994338;28;20215;-88
2022/09/07 08:16:18;;;;;;;6.03;2.63;;;23.20;99.90;;;;;;4996803;28;20182;-89
2022/09/07 08:18:44;;;;;;;7.30;2.72;;;23.30;99.90;;;;;;4983151;28;20206;-89
2022/09/07 08:21:13;;;;;;;6.70;2.58;;;23.40;99.90;;;;;;4995907;28;20203;-89
2022/09/07 08:23:42;;;;;;;5.00;2.58;;;23.50;99.90;;;;;;4995827;28;20199;-89
2022/09/07 08:26:09;;;;;;;7.35;2.60;;;23.60;99.90;;;;;;5001712;28;20187;-88
2022/09/07 08:28:40;;;;;;;8.05;2.97;;;23.80;99.90;;;;;;4998262;28;20187;-89
2022/09/07 08:31:09;;;;;;;7.25;2.50;;;23.90;99.90;;;;;;4992279;28;20326;-89
2022/09/07 08:33:36;;;;;;;5.03;2.60;;;24.00;99.90;;;;;;5012860;28;20211;-88
2022/09/07 08:36:07;;;;;;;6.50;2.30;;;24.10;99.90;;;;;;4991296;28;20203;-89
2022/09/07 08:38:35;;;;;;;6.38;2.78;;;24.20;99.90;;;;;;4997606;28;20233;-89
2022/09/07 08:41:02;;;;;;;4.75;2.35;;;24.40;99.90;;;;;;4993025;28;20234;-89
2022/09/07 08:43:34;;;;;;;4.43;2.50;;;24.50;99.90;;;;;;4993211;28;20195;-89
2022/09/07 08:46:37;;;;;;;4.65;2.33;;;24.60;99.90;;;;;;4994673;28;20202;-89
2022/09/07 08:49:14;;;;;;;5.32;2.33;;;24.70;99.90;;;;;;4987014;28;20210;-88
2022/09/07 08:52:06;;;;;;;4.63;2.47;;;24.80;99.90;;;;;;4989740;28;20206;-88
2022/09/07 08:54:32;;;;;;;7.22;2.53;;;24.90;99.90;;;;;;4989771;28;20242;-88
2022/09/07 08:57:01;;;;;;;3.88;2.15;;;24.90;99.90;;;;;;5000244;28;20187;-88
2022/09/07 08:59:47;;;;;;;8.35;2.78;;;25.10;99.90;;;;;;4983353;28;20183;-88
2022/09/07 09:02:16;;;;;;;7.00;2.42;;;25.20;99.90;;;;;;4992186;28;20199;-88
2022/09/07 09:04:43;;;;;;;4.93;2.45;;;25.00;99.90;;;;;;5007716;28;20194;-88
2022/09/07 09:07:17;;;;;;;5.18;2.40;;;25.00;99.90;;;;;;5009683;28;20198;-88
2022/09/07 09:10:19;;;;;;;3.92;2.60;;;25.10;99.90;;;;;;4992679;28;20191;-88
2022/09/07 09:13:21;;;;;;;8.18;2.40;;;25.10;99.90;;;;;;4958844;28;20245;-88
2022/09/07 09:15:53;;;;;;;4.57;2.20;;;25.30;99.90;;;;;;4946252;28;20183;-88
2022/09/07 09:18:42;;;;;;;6.22;2.28;;;25.40;99.90;;;;;;5007435;28;20175;-88
2022/09/07 09:21:14;;;;;;;6.75;2.60;;;25.50;99.90;;;;;;4992246;28;20210;-88
2022/09/07 09:23:42;;;;;;;6.13;2.22;;;25.50;99.90;;;;;;4992489;28;20188;-88
2022/09/07 09:26:22;;;;;;;7.28;2.50;;;25.50;99.90;;;;;;4992219;28;20183;-88
2022/09/07 09:28:48;;;;;;;6.43;2.50;;;25.50;99.90;;;;;;5007888;28;20190;-88
2022/09/07 09:31:24;;;;;;;4.53;2.25;;;25.40;99.90;;;;;;4992514;28;20200;-88
2022/09/07 09:34:20;;;;;;;8.60;2.97;;;25.40;99.90;;;;;;5012259;28;20202;-88
2022/09/07 09:36:52;;;;;;;5.22;2.20;;;25.60;99.90;;;;;;4980674;28;20204;-88
2022/09/07 09:39:37;;;;;;;5.55;2.78;;;25.70;99.90;;;;;;4990497;28;20179;-88
2022/09/07 09:42:09;;;;;;;5.80;2.50;;;25.70;99.90;;;;;;4993991;28;20203;-88
2022/09/07 09:44:37;;;;;;;4.90;2.25;;;25.60;99.90;;;;;;5011445;28;20183;-88
2022/09/07 09:47:04;;;;;;;4.78;2.25;;;25.70;99.90;;;;;;4991550;28;20187;-88
2022/09/07 09:49:40;;;;;;;7.80;2.40;;;25.80;99.90;;;;;;4994947;28;20218;-88
2022/09/07 09:52:17;;;;;;;5.28;2.33;;;26.00;99.90;;;;;;4990529;28;20217;-87
2022/09/07 09:54:55;;;;;;;5.15;2.67;;;26.00;99.90;;;;;;4996804;28;20215;-88
2022/09/07 09:57:47;;;;;;;3.75;2.30;;;26.20;99.90;;;;;;4990723;28;20229;-88
2022/09/07 10:00:20;;;;;;;5.20;2.55;;;26.40;99.90;;;;;;4991350;28;20183;-88
2022/09/07 10:03:17;;;;;;;6.40;2.28;;;26.40;99.90;;;;;;4996013;28;20262;-87
2022/09/07 10:05:45;;;;;;;5.80;2.22;;;26.50;99.90;;;;;;4990357;28;20380;-87
2022/09/07 10:08:28;;;;;;;4.60;2.00;;;26.80;99.90;;;;;;4995616;28;20187;-87
2022/09/07 10:10:59;;;;;;;4.30;1.90;;;26.80;99.90;;;;;;4990416;28;20186;-87
2022/09/07 10:13:52;;;;;;;4.75;1.95;;;26.90;99.90;;;;;;4990891;28;20210;-88
2022/09/07 10:16:18;;;;;;;3.65;1.90;;;27.00;99.90;;;;;;4989183;28;20176;-87
2022/09/07 10:18:56;;;;;;;2.90;2.05;;;27.20;99.90;;;;;;4997498;28;20226;-87
2022/09/07 10:21:23;;;;;;;4.93;1.70;;;27.20;99.90;;;;;;4989415;28;20203;-87
2022/09/07 10:24:14;;;;;;;5.85;2.10;;;27.20;99.90;;;;;;4990074;28;20179;-88
2022/09/07 10:26:43;;;;;;;3.75;1.70;;;27.20;99.90;;;;;;4982045;28;20267;-88
2022/09/07 10:29:15;;;;;;;2.83;1.77;;;27.20;99.90;;;;;;4993678;28;20278;-88
2022/09/07 10:32:34;;;;;;;4.80;2.03;;;27.20;99.90;;;;;;4993250;28;20218;-87
2022/09/07 10:35:12;;;;;;;6.95;1.70;;;27.40;99.90;;;;;;4946960;28;20746;-88
2022/09/07 10:38:11;;;;;;;5.40;2.15;;;27.30;99.90;;;;;;4990707;28;20198;-88
2022/09/07 10:40:45;;;;;;;4.53;2.10;;;27.50;99.90;;;;;;4992126;28;20175;-88
2022/09/07 10:43:42;;;;;;;7.30;2.00;;;27.50;99.90;;;;;;5000166;28;20207;-88
2022/09/07 10:46:08;;;;;;;3.90;2.00;;;27.60;99.90;;;;;;4991062;28;20190;-88
2022/09/07 10:48:50;;;;;;;4.13;1.85;;;27.60;99.90;;;;;;5008307;28;20183;-88
2022/09/07 10:51:26;;;;;;;4.72;1.65;;;27.80;99.90;;;;;;4999451;28;20191;-88
2022/09/07 10:54:00;;;;;;;2.22;1.80;;;28.00;99.90;;;;;;5011824;28;20203;-87
2022/09/07 10:56:32;;;;;;;3.00;1.50;;;27.80;99.90;;;;;;4993794;28;20211;-87
2022/09/07 10:59:13;;;;;;;3.03;1.35;;;27.60;99.90;;;;;;4993309;28;20183;-87
2022/09/07 11:02:13;;;;;;;5.32;1.98;;;27.50;99.90;;;;;;5003189;28;20203;-88
2022/09/07 11:05:04;;;;;;;2.13;1.48;;;27.30;99.90;;;;;;4996507;28;20212;-87
2022/09/07 11:07:59;;;;;;;2.08;1.70;;;27.40;99.90;;;;;;5013760;28;20201;-87
2022/09/07 11:10:44;;;;;;;3.65;1.60;;;27.30;99.90;;;;;;4966272;28;20191;-88
2022/09/07 11:13:15;;;;;;;4.38;1.80;;;27.40;99.90;;;;;;5020516;23;20299;-41
2022/09/07 11:15:59;;;;;;;4.05;1.60;;;27.50;99.90;;;;;;5036535;28;20182;-41
2022/09/07 11:18:44;;;;;;;2.78;1.30;;;27.60;99.90;;;;;;5041685;28;20207;-40
2022/09/07 11:21:16;;;;;;;2.70;1.10;;;27.80;99.90;;;;;;5025142;28;20302;-39
2022/09/07 11:24:00;;;;;;;2.70;1.58;;;27.90;99.90;;;;;;5035016;28;20196;-38
2022/09/07 11:26:47;;;;;;;2.90;1.50;;;28.00;99.90;;;;;;5056396;22;20274;-89
2022/09/07 11:29:41;;;;;;;3.97;1.55;;;28.20;99.90;;;;;;4993729;28;20178;-88
2022/09/07 11:32:16;;;;;;;3.95;1.60;;;28.40;99.90;;;;;;4997993;28;20163;-89
2022/09/07 11:35:02;;;;;;;5.53;1.83;;;28.60;99.90;;;;;;5011930;28;20218;-88
2022/09/07 11:37:45;;;;;;;2.63;1.33;;;28.60;99.90;;;;;;5014899;28;20159;-88
2022/09/07 11:40:25;;;;;;;3.88;1.70;;;28.60;99.90;;;;;;5014885;28;20174;-88
2022/09/07 11:42:58;;;;;;;3.53;1.65;;;28.60;99.90;;;;;;5009662;28;20178;-88
2022/09/07 11:45:50;;;;;;;3.55;1.77;;;28.70;99.90;;;;;;4981658;28;20164;-88
2022/09/07 11:48:22;;;;;;;3.20;1.70;;;28.70;99.90;;;;;;5007450;28;20191;-88
2022/09/07 11:50:52;;;;;;;2.55;1.50;;;28.60;99.90;;;;;;4998264;28;20258;-88
2022/09/07 11:53:25;;;;;;;2.40;1.55;;;28.60;99.90;;;;;;4994142;28;20307;-88
2022/09/07 11:56:12;;;;;;;3.05;1.75;;;28.60;99.90;;;;;;4983650;28;20267;-88
2022/09/07 11:58:43;;;;;;;3.20;1.50;;;28.70;99.90;;;;;;4999719;28;20176;-88
2022/09/07 12:01:54;;;;;;;3.40;1.70;;;28.80;99.90;;;;;;4989099;28;20183;-88
2022/09/07 12:04:39;;;;;;;3.08;1.60;;;29.10;99.90;;;;;;4985238;28;20196;-88
2022/09/07 12:07:26;;;;;;;2.05;1.40;;;29.30;99.90;;;;;;4982860;28;20223;-88
2022/09/07 12:10:23;;;;;;;1.52;1.27;;;29.30;99.90;;;;;;4990014;28;20242;-88
2022/09/07 12:13:28;;;;;;;1.92;1.35;;;29.70;99.90;;;;;;4991516;28;20199;-88
2022/09/07 12:16:28;;;;;;;3.72;1.67;;;29.70;99.90;;;;;;4979146;28;20180;-88
2022/09/07 12:19:18;;;;;;;1.70;1.38;;;29.70;99.90;;;;;;4987301;28;20172;-89
2022/09/07 12:21:50;;;;;;;3.40;1.60;;;29.80;99.80;;;;;;5024168;28;20184;-89
2022/09/07 12:24:38;;;;;;;5.13;1.58;;;29.70;98.90;;;;;;4994161;28;20214;-88
2022/09/07 12:27:20;;;;;;;2.83;1.75;;;29.80;99.00;;;;;;5010259;28;20222;-88
2022/09/07 12:29:48;;;;;;;3.67;1.55;;;29.90;98.60;;;;;;4995016;28;20651;-88
2022/09/07 12:32:45;;;;;;;1.98;1.50;;;29.80;99.20;;;;;;4998443;28;20621;-88
2022/09/07 12:35:32;;;;;;;2.90;1.58;;;29.90;98.00;;;;;;4990698;28;20191;-88
2022/09/07 12:38:24;;;;;;;1.67;1.40;;;30.20;98.50;;;;;;4994950;28;20187;-88
2022/09/07 12:40:58;;;;;;;3.15;1.50;;;30.10;97.90;;;;;;4989776;28;20187;-87
2022/09/07 12:43:42;;;;;;;3.20;1.50;;;30.20;97.80;;;;;;4978406;28;20207;-87
2022/09/07 12:46:18;;;;;;;4.55;1.30;;;30.20;97.20;;;;;;4997524;28;20202;-87
2022/09/07 12:49:03;;;;;;;3.83;1.60;;;30.40;98.00;;;;;;5012671;28;20187;-87
2022/09/07 12:51:38;;;;;;;2.97;1.45;;;30.40;97.20;;;;;;5002959;28;20211;-88
2022/09/07 12:54:20;;;;;;;3.22;1.60;;;30.50;97.20;;;;;;4997312;28;20210;-88
2022/09/07 12:57:12;;;;;;;2.90;1.48;;;30.50;96.80;;;;;;4996444;28;20724;-88
2022/09/07 13:00:05;;;;;;;2.88;1.40;;;30.70;96.90;;;;;;4996952;28;20419;-88
2022/09/07 13:03:13;;;;;;;6.53;1.60;;;30.90;97.20;;;;;;5121006;27;20643;-37
2022/09/07 13:05:57;;;;;;;2.25;1.48;;;30.80;96.40;;;;;;5072503;28;20183;-35
2022/09/07 13:08:42;;;;;;;2.20;1.50;;;30.80;95.60;;;;;;5088809;28;20184;-35
2022/09/07 13:11:20;;;;;;;2.20;1.50;;;31.00;96.50;;;;;;5090529;28;20175;-36
2022/09/07 13:14:12;;;;;;;2.72;1.45;;;31.30;96.00;;;;;;5080170;28;20234;-34
2022/09/07 13:16:40;;;;;;;2.75;1.60;;;31.20;94.90;;;;;;5084661;28;20199;-34
2022/09/07 13:19:13;;;;;;;3.97;1.48;;;31.30;94.60;;;;;;5055333;28;20188;-36
2022/09/07 13:21:48;;;;;;;2.92;1.42;;;31.40;93.90;;;;;;5052835;28;20220;-36
2022/09/07 13:24:20;;;;;;;3.13;1.30;;;31.30;94.00;;;;;;5082504;28;20181;-35
2022/09/07 13:26:57;;;;;;;5.13;1.52;;;31.30;92.40;;;;;;5067738;28;20222;-35